CheckWX is a tool to help pilots better visualize weather data.  It is not intended as a substitute for an official pre-flight weather briefing.

01:10:28 UTC

KNTU METAR
Oceana NAS / Apollo Soucek Field Airport
Virginia Beach, Virginia, USA
Current

14 mins ago

KNTU 200056Z 16004KT 10SM FEW050 SCT300 29/26 A2993 RMK AO2 SLP136 T2 SET T02890256
Observed
Jul-20 @ 00:56 UTC
Wind
  • 160° at 4 KTS
Visibility
10 SM
Flight Rules
VFR
Cloud Levels
  • Few at 5,000' AGL
  • Scattered at 30,000' AGL
Temperature
29°C / 84°F
Dewpoint
26°C / 79°F
Heat Index
36°C / 96°F
Humidity
84%
Altimeter
29.93" Hg
Pressure
1013.52 hPa
Previous

1 hour ago

KNTU 192356Z VRB03KT 10SM CLR 30/26 A2992 RMK AO2 SLP135 60000 T03000256 10311 20283 55003
Observed
Jul-19 @ 23:56 UTC
Wind
  • Variable at 3 KTS
Visibility
10 SM
Flight Rules
VFR
Cloud Levels
  • Clear skies
Temperature
30°C / 86°F
Dewpoint
26°C / 79°F
Heat Index
37°C / 99°F
Humidity
79%
Altimeter
29.92" Hg
Pressure
1013.22 hPa
Previous

1 hour ago

KNTU 192356Z COR VRB03KT 10SM FEW050 SCT300 30/26 A2992 RMK AO2 SLP135 CB DSNT S T2 SET 60000 T03000256 10311 20283 55003
Observed
Jul-19 @ 23:56 UTC
Wind
  • Variable at 3 KTS
Visibility
10 SM
Flight Rules
VFR
Cloud Levels
  • Few at 5,000' AGL
  • Scattered at 30,000' AGL
Temperature
30°C / 86°F
Dewpoint
26°C / 79°F
Heat Index
37°C / 99°F
Humidity
79%
Altimeter
29.92" Hg
Pressure
1013.22 hPa